Pittsfield, IL (62363)

5:50 PM CDT on May 28, 2015 (GMT -0500)
Pittsfield Penstone Municipal | | Change Station
CLOSE
Current Station
Airport
Location: Pittsfield,
Elevation: 709 ft
Nearby Weather Stations

Elev 709 ft 39.64 °N, 90.78 °W | Updated 15 minutes ago

Light Thunderstorms and Rain
Light Thunderstorm Rain
68 °F
Feels Like 68 °F
N
5
Wind Variable Wind from NW

Today
High -- | Low -- °F
--% Chance of Precip.
Yesterday
High -- | Low -- °F
Precip. -- in
5:39 AM 8:21 PM
Waxing Gibbous, 79% visible
Pressure 30.07 in
Visibility 10.0 miles
Clouds Scattered Clouds 4000 ft
Scattered Clouds 5000 ft
Mostly Cloudy 10000 ft
Dew Point 64 °F
Humidity 85%
Rainfall 0.83 in
Snow Depth Not available.
UV 2 out of 12
Pollen 8.70 out of 12
Air Quality Not available.
Flu Activity Sporadic
METAR KPPQ 282235Z AUTO 32004KT 10SM -VCTSRA SCT040 SCT050 BKN100 20/18 A3007 RMK AO2 LTG DSNT E AND W P0039 T02020176

More Conditions Fewer Conditions

Pressure 30.07 in
Visibility 10.0 miles
Clouds Scattered Clouds 4000 ft
Scattered Clouds 5000 ft
Mostly Cloudy 10000 ft
Dew Point 64 °F
Humidity 85%
Rainfall 0.83 in
Snow Depth Not available.
UV 2 out of 12
Pollen 8.70 out of 12
Air Quality Not available.
Flu Activity Sporadic
METAR KPPQ 282235Z AUTO 32004KT 10SM -VCTSRA SCT040 SCT050 BKN100 20/18 A3007 RMK AO2 LTG DSNT E AND W P0039 T02020176

More Conditions Fewer Conditions

10-Day Weather Forecast

Almanac

Astronomy

May. 28, 2015 Rise Set
Actual Time
Civil Twilight
Nautical Twilight
Astronomical Twilight
Moon
Length of Visible Light
Length of Day
Tomorrow will be .
, % of the Moon is Illuminated

Today's Extremes

State Highs State Lows

Community

WunderPhotos

Upload Photos

1,825,083 photos uploaded!

WunderBlogs® & News

Nearby

Air Quality

  Air Quality AQ Index Pollutant
Not available.

Snow Depth

Station Depth Elevation

Earthquake Activity

City Distance Mag. Time & Date
Minimum magnitude displayed is 2.5.

Coastal Water Temperatures

Place Temperature

Stations

Nearby Weather Stations

Station Location Temp. Windchill Dew Point Humidity Wind Precip. Elev Updated Type